createdAt,value
2018-02-17T00:00:28.921Z,3.10
2018-02-17T00:03:02.516Z,3.10
2018-02-17T00:05:36.180Z,3.10
2018-02-17T00:08:10.643Z,3.20
2018-02-17T00:10:45.036Z,3.20
2018-02-17T00:13:22.522Z,3.20
2018-02-17T00:15:56.160Z,3.20
2018-02-17T00:18:29.902Z,3.20
2018-02-17T00:21:04.524Z,3.20
2018-02-17T00:23:38.416Z,3.20
2018-02-17T00:26:13.145Z,3.00
2018-02-17T00:28:46.992Z,3.00
2018-02-17T00:31:20.849Z,2.90
2018-02-17T00:33:55.518Z,3.00
2018-02-17T00:36:29.184Z,3.10
2018-02-17T00:39:04.077Z,3.10
2018-02-17T00:41:39.443Z,3.00
2018-02-17T00:44:13.295Z,3.00
2018-02-17T00:46:47.016Z,3.00
2018-02-17T00:49:21.464Z,3.00
2018-02-17T00:51:55.247Z,2.90
2018-02-17T00:54:29.031Z,3.00
2018-02-17T00:57:02.805Z,3.00
2018-02-17T00:59:38.228Z,3.00
2018-02-17T01:02:13.034Z,3.00
2018-02-17T01:04:46.651Z,3.10
2018-02-17T01:07:20.316Z,3.10
2018-02-17T01:09:55.789Z,3.00
2018-02-17T01:12:29.746Z,3.00
2018-02-17T01:15:03.507Z,3.00
2018-02-17T01:17:37.285Z,3.00
2018-02-17T01:20:11.022Z,3.00
2018-02-17T01:22:44.743Z,3.00
2018-02-17T01:25:18.542Z,3.00
2018-02-17T01:27:52.307Z,2.90
2018-02-17T01:30:26.936Z,2.90
2018-02-17T01:33:00.750Z,2.90
2018-02-17T01:35:34.543Z,2.90
2018-02-17T01:38:09.729Z,2.90
2018-02-17T01:40:43.515Z,2.90
2018-02-17T01:43:18.204Z,3.00
2018-02-17T01:45:53.121Z,3.10
2018-02-17T01:48:28.120Z,3.10
2018-02-17T01:51:02.512Z,3.10
2018-02-17T01:53:36.423Z,3.10
2018-02-17T01:56:10.117Z,3.10
2018-02-17T01:58:44.721Z,3.10
2018-02-17T02:01:18.454Z,3.10
2018-02-17T02:03:52.206Z,3.10
2018-02-17T02:06:26.861Z,3.00
2018-02-17T02:09:01.316Z,3.00
2018-02-17T02:11:35.834Z,3.00
2018-02-17T02:14:09.605Z,3.00
2018-02-17T02:16:44.659Z,3.00
2018-02-17T02:19:20.467Z,3.00
2018-02-17T02:21:54.238Z,3.00
2018-02-17T02:24:27.924Z,3.00
2018-02-17T02:27:02.775Z,3.00
2018-02-17T02:29:36.594Z,3.10
2018-02-17T02:32:12.074Z,3.10
2018-02-17T02:34:46.544Z,3.10
2018-02-17T02:37:21.800Z,3.10
2018-02-17T02:39:56.491Z,3.10
2018-02-17T02:42:30.923Z,3.20
2018-02-17T02:45:05.370Z,3.10
2018-02-17T02:47:39.099Z,3.10
2018-02-17T02:50:12.979Z,3.00
2018-02-17T02:52:48.044Z,3.00
2018-02-17T02:55:21.886Z,2.90
2018-02-17T02:57:56.434Z,2.80
2018-02-17T03:00:31.263Z,2.70
2018-02-17T03:03:06.492Z,2.80
2018-02-17T03:05:41.361Z,2.90
2018-02-17T03:08:14.965Z,2.80
2018-02-17T03:10:48.778Z,2.90
2018-02-17T03:13:22.568Z,2.80
2018-02-17T03:15:58.155Z,2.80
2018-02-17T03:18:32.019Z,2.80
2018-02-17T03:21:05.741Z,2.60
2018-02-17T03:23:39.416Z,2.60
2018-02-17T03:26:13.067Z,2.70
2018-02-17T03:28:47.613Z,2.70
2018-02-17T03:31:22.212Z,2.70
2018-02-17T03:33:55.802Z,2.70
2018-02-17T03:36:29.585Z,2.80
2018-02-17T03:39:03.376Z,2.80
2018-02-17T03:41:38.512Z,2.80
2018-02-17T03:44:13.710Z,2.80
2018-02-17T03:46:48.316Z,2.80
2018-02-17T03:49:24.205Z,2.70
2018-02-17T03:51:57.848Z,2.70
2018-02-17T03:57:11.694Z,2.80
2018-02-17T03:59:46.050Z,2.80
2018-02-17T04:02:19.906Z,2.70
2018-02-17T04:04:53.958Z,2.70
2018-02-17T04:07:27.753Z,2.60
2018-02-17T04:10:02.313Z,2.60
2018-02-17T04:12:36.144Z,2.50
2018-02-17T04:15:09.883Z,2.50
2018-02-17T04:17:44.483Z,2.60
2018-02-17T04:20:18.344Z,2.60
2018-02-17T04:22:52.137Z,2.60
2018-02-17T04:25:25.982Z,2.60
2018-02-17T04:27:59.718Z,2.60
2018-02-17T04:30:34.694Z,2.60
2018-02-17T04:33:08.472Z,2.60
2018-02-17T04:35:43.572Z,2.60
2018-02-17T04:38:17.205Z,2.70
2018-02-17T04:40:52.112Z,2.50
2018-02-17T04:43:26.092Z,2.50
2018-02-17T04:46:02.617Z,2.40
2018-02-17T04:51:44.142Z,2.20
2018-02-17T04:54:25.277Z,2.30
2018-02-17T04:56:59.780Z,2.30
2018-02-17T05:02:45.429Z,2.30
2018-02-17T05:05:38.458Z,2.30
2018-02-17T05:08:12.634Z,2.30
2018-02-17T05:10:47.047Z,2.30
2018-02-17T05:13:21.242Z,2.20
2018-02-17T05:16:20.739Z,2.20
2018-02-17T05:18:57.093Z,2.20
2018-02-17T05:21:35.061Z,2.30
2018-02-17T05:24:13.945Z,2.30
2018-02-17T05:26:59.907Z,2.30
2018-02-17T05:29:35.225Z,2.30
2018-02-17T05:32:11.281Z,2.40
2018-02-17T05:34:52.982Z,2.40
2018-02-17T05:37:29.950Z,2.30
2018-02-17T05:40:04.900Z,2.30
2018-02-17T05:42:42.108Z,2.30
2018-02-17T05:45:18.059Z,2.30
2018-02-17T05:47:55.747Z,2.30
2018-02-17T05:50:32.218Z,2.10
2018-02-17T05:53:06.570Z,2.10
2018-02-17T05:55:40.760Z,2.10
2018-02-17T05:58:14.556Z,2.10
2018-02-17T06:00:49.430Z,2.20
2018-02-17T06:03:23.704Z,2.20
2018-02-17T06:05:58.672Z,2.30
2018-02-17T06:08:34.072Z,2.30
2018-02-17T06:11:08.417Z,2.40
2018-02-17T06:13:43.405Z,2.30
2018-02-17T06:16:18.003Z,2.30
2018-02-17T06:18:51.999Z,2.20
2018-02-17T06:21:27.487Z,2.20
2018-02-17T06:24:03.744Z,2.30
2018-02-17T06:26:37.854Z,2.30
2018-02-17T06:29:12.914Z,2.30
2018-02-17T06:31:46.863Z,2.30
2018-02-17T06:34:22.199Z,2.30
2018-02-17T06:36:57.130Z,2.40
2018-02-17T06:39:31.081Z,2.40
2018-02-17T06:42:06.416Z,2.30
2018-02-17T06:44:41.242Z,2.20
2018-02-17T06:47:16.304Z,2.20
2018-02-17T06:49:50.550Z,2.20
2018-02-17T06:52:24.615Z,2.10
2018-02-17T06:54:58.472Z,2.20
2018-02-17T06:57:32.713Z,2.20
2018-02-17T07:00:06.838Z,2.20
2018-02-17T07:02:40.961Z,2.10
2018-02-17T07:05:15.048Z,2.10
2018-02-17T07:07:48.934Z,2.10
2018-02-17T07:10:23.006Z,2.20
2018-02-17T07:12:57.076Z,2.30
2018-02-17T07:15:31.180Z,2.30
2018-02-17T07:18:05.619Z,2.40
2018-02-17T07:20:40.457Z,2.40
2018-02-17T07:23:14.342Z,2.30
2018-02-17T07:25:49.323Z,2.30
2018-02-17T07:28:23.801Z,2.10
2018-02-17T07:30:58.431Z,2.10
2018-02-17T07:33:33.459Z,2.30
2018-02-17T07:36:07.903Z,2.30
2018-02-17T07:38:42.660Z,2.40
2018-02-17T07:41:17.373Z,2.30
2018-02-17T07:43:52.735Z,2.40
2018-02-17T07:46:27.636Z,2.30
2018-02-17T07:49:02.504Z,2.30
2018-02-17T07:51:36.518Z,2.20
2018-02-17T07:54:11.123Z,2.30
2018-02-17T07:56:46.090Z,2.30
2018-02-17T07:59:20.018Z,2.40
2018-02-17T08:01:54.276Z,2.50
2018-02-17T08:04:28.285Z,2.40
2018-02-17T08:07:02.806Z,2.40
2018-02-17T08:09:37.791Z,2.30
2018-02-17T08:12:11.693Z,2.30
2018-02-17T08:14:45.700Z,2.40
2018-02-17T08:17:19.825Z,2.40
2018-02-17T08:19:53.508Z,2.40
2018-02-17T08:22:27.856Z,2.20
2018-02-17T08:25:02.001Z,2.10
2018-02-17T08:27:35.735Z,2.10
2018-02-17T08:30:09.517Z,2.00
2018-02-17T08:32:44.031Z,2.10
2018-02-17T08:35:23.310Z,2.10
2018-02-17T08:37:57.420Z,2.10
2018-02-17T08:40:31.230Z,2.10
2018-02-17T08:43:05.867Z,2.10
2018-02-17T08:45:41.826Z,2.10
2018-02-17T08:48:16.700Z,2.00
2018-02-17T08:50:50.978Z,2.10
2018-02-17T08:53:25.139Z,2.00
2018-02-17T08:55:59.771Z,2.10
2018-02-17T08:58:33.852Z,2.10
2018-02-17T09:01:07.858Z,2.20
2018-02-17T09:03:41.882Z,2.10
2018-02-17T09:06:17.185Z,2.20
2018-02-17T09:08:50.964Z,2.20
2018-02-17T09:11:25.715Z,2.30
2018-02-17T09:13:59.699Z,2.30
2018-02-17T09:16:33.502Z,2.30
2018-02-17T09:19:07.590Z,2.30
2018-02-17T09:21:41.858Z,2.30
2018-02-17T09:24:15.692Z,2.20
2018-02-17T09:26:50.745Z,2.20
2018-02-17T09:29:25.101Z,2.10
2018-02-17T09:32:01.666Z,2.20
2018-02-17T09:34:35.624Z,2.10
2018-02-17T09:37:09.679Z,2.20
2018-02-17T09:39:43.884Z,2.30
2018-02-17T09:42:18.034Z,2.30
2018-02-17T09:44:52.875Z,2.50
2018-02-17T09:47:26.695Z,2.50
2018-02-17T09:50:00.805Z,2.50
2018-02-17T09:52:35.644Z,2.60
2018-02-17T09:55:09.667Z,2.70
2018-02-17T09:57:43.540Z,2.80
2018-02-17T10:00:18.089Z,2.80
2018-02-17T10:02:52.360Z,2.80
2018-02-17T10:05:26.398Z,2.70
2018-02-17T10:08:00.506Z,2.80
2018-02-17T10:10:35.322Z,2.90
2018-02-17T10:13:10.108Z,2.90
2018-02-17T10:15:44.324Z,2.90
2018-02-17T10:18:19.389Z,2.90
2018-02-17T10:20:54.310Z,3.00
2018-02-17T10:23:29.000Z,3.00
2018-02-17T10:26:03.009Z,3.00
2018-02-17T10:28:37.813Z,3.00
2018-02-17T10:31:11.584Z,3.00
2018-02-17T10:33:46.678Z,3.10
2018-02-17T10:36:20.906Z,3.00
2018-02-17T10:38:54.874Z,3.00
2018-02-17T10:41:29.977Z,2.90
2018-02-17T10:44:03.715Z,2.90
2018-02-17T10:46:38.275Z,3.00
2018-02-17T10:49:12.057Z,2.90
2018-02-17T10:51:45.742Z,2.80
2018-02-17T10:54:19.280Z,2.80
2018-02-17T10:56:52.976Z,2.90
2018-02-17T10:59:26.553Z,2.90
2018-02-17T11:02:00.885Z,2.80
2018-02-17T11:04:34.455Z,2.80
2018-02-17T11:07:08.075Z,2.90
2018-02-17T11:09:41.666Z,2.90
2018-02-17T11:12:15.429Z,2.90
2018-02-17T11:14:48.933Z,2.90
2018-02-17T11:17:22.651Z,3.00
2018-02-17T11:19:56.261Z,2.90
2018-02-17T11:22:30.568Z,2.90
2018-02-17T11:25:04.103Z,2.90
2018-02-17T11:27:37.732Z,3.00
2018-02-17T11:30:12.038Z,3.00
2018-02-17T11:32:45.714Z,3.00
2018-02-17T11:35:19.239Z,3.10
2018-02-17T11:37:52.809Z,3.00
2018-02-17T11:40:27.151Z,3.00
2018-02-17T11:43:00.904Z,3.00
2018-02-17T11:45:34.438Z,3.10
2018-02-17T11:48:08.025Z,3.10
2018-02-17T11:50:42.362Z,3.20
2018-02-17T11:53:15.878Z,3.20
2018-02-17T11:55:49.461Z,3.20
2018-02-17T11:58:23.048Z,3.20
2018-02-17T12:00:57.381Z,3.20
2018-02-17T12:03:30.972Z,3.10
2018-02-17T12:06:04.608Z,3.00
2018-02-17T12:08:38.916Z,3.00
2018-02-17T12:11:12.516Z,3.00
2018-02-17T12:13:46.819Z,3.10
2018-02-17T12:16:20.322Z,3.10
2018-02-17T12:18:53.836Z,3.20
2018-02-17T12:21:31.090Z,3.20
2018-02-17T12:24:04.709Z,3.20
2018-02-17T12:26:38.346Z,3.20
2018-02-17T12:29:11.906Z,3.20
2018-02-17T12:31:45.484Z,3.20
2018-02-17T12:34:19.049Z,3.30
2018-02-17T12:36:52.703Z,3.30
2018-02-17T12:39:26.297Z,3.30
2018-02-17T12:41:59.886Z,3.20
2018-02-17T12:44:34.226Z,3.20
2018-02-17T12:47:07.867Z,3.20
2018-02-17T12:49:41.423Z,3.30
2018-02-17T12:52:14.958Z,3.20
2018-02-17T12:54:48.523Z,3.10
2018-02-17T12:57:22.123Z,3.10
2018-02-17T12:59:55.650Z,3.20
2018-02-17T13:02:29.258Z,3.10
2018-02-17T13:05:02.824Z,3.10
2018-02-17T13:07:37.158Z,3.00
2018-02-17T13:10:10.733Z,3.00
2018-02-17T13:12:45.066Z,3.00
2018-02-17T13:15:18.808Z,3.00
2018-02-17T13:17:52.425Z,3.00
2018-02-17T13:20:26.891Z,2.80
2018-02-17T13:23:00.481Z,2.80
2018-02-17T13:25:34.213Z,2.40
2018-02-17T13:28:07.775Z,2.20
2018-02-17T13:30:41.348Z,2.20
2018-02-17T13:33:14.876Z,2.40
2018-02-17T13:35:48.453Z,2.30
2018-02-17T13:38:22.081Z,2.40
2018-02-17T13:40:55.724Z,2.10
2018-02-17T13:43:29.325Z,2.10
2018-02-17T13:46:03.030Z,1.90
2018-02-17T13:48:36.594Z,1.90
2018-02-17T13:51:10.183Z,2.10
2018-02-17T13:53:43.754Z,2.30
2018-02-17T13:56:17.273Z,2.40
2018-02-17T13:58:51.710Z,2.50
2018-02-17T14:01:25.328Z,2.50
2018-02-17T14:03:58.895Z,2.20
2018-02-17T14:06:32.534Z,2.10
2018-02-17T14:09:06.853Z,2.30
2018-02-17T14:11:40.595Z,2.30
2018-02-17T14:14:14.150Z,2.40
2018-02-17T14:16:47.768Z,2.50
2018-02-17T14:19:21.307Z,2.70
2018-02-17T14:21:54.865Z,2.80
2018-02-17T14:24:29.199Z,2.90
2018-02-17T14:27:02.990Z,2.90
2018-02-17T14:29:36.576Z,3.00
2018-02-17T14:32:10.167Z,3.00
2018-02-17T14:34:43.930Z,3.00
2018-02-17T14:37:17.469Z,3.00
2018-02-17T14:39:51.163Z,3.00
2018-02-17T14:42:24.723Z,3.00
2018-02-17T14:44:58.240Z,3.00
2018-02-17T14:47:32.583Z,3.00
2018-02-17T14:50:06.241Z,3.00
2018-02-17T14:52:40.518Z,3.00
2018-02-17T14:55:14.033Z,2.90
2018-02-17T14:57:47.600Z,2.90
2018-02-17T15:00:21.165Z,2.90
2018-02-17T15:02:54.794Z,3.00
2018-02-17T15:05:28.409Z,2.90
2018-02-17T15:08:02.000Z,2.90
2018-02-17T15:10:35.512Z,2.90
2018-02-17T15:13:09.101Z,2.90
2018-02-17T15:15:42.716Z,2.90
2018-02-17T15:18:16.374Z,2.90
2018-02-17T15:20:50.794Z,2.90
2018-02-17T15:23:24.367Z,2.80
2018-02-17T15:25:58.666Z,2.80
2018-02-17T15:28:32.365Z,2.80
2018-02-17T15:31:05.951Z,2.80
2018-02-17T15:33:39.544Z,2.80
2018-02-17T15:36:13.033Z,2.80
2018-02-17T15:38:46.779Z,2.70
2018-02-17T15:41:20.308Z,2.70
2018-02-17T15:43:53.866Z,2.70
2018-02-17T15:46:27.482Z,2.60
2018-02-17T15:49:01.010Z,2.60
2018-02-17T15:51:34.579Z,2.70
2018-02-17T15:54:08.255Z,2.60
2018-02-17T15:56:41.977Z,2.50
2018-02-17T15:59:15.550Z,2.60
2018-02-17T16:01:49.852Z,2.70
2018-02-17T16:04:23.486Z,2.60
2018-02-17T16:06:56.986Z,2.70
2018-02-17T16:09:30.499Z,2.80
2018-02-17T16:12:04.074Z,2.70
2018-02-17T16:14:37.614Z,2.70
2018-02-17T16:17:11.994Z,2.80
2018-02-17T16:19:45.611Z,2.80
2018-02-17T16:22:19.173Z,2.80
2018-02-17T16:24:52.785Z,2.80
2018-02-17T16:27:26.297Z,2.80
2018-02-17T16:30:00.006Z,2.90
2018-02-17T16:32:33.838Z,2.80
2018-02-17T16:35:07.548Z,2.50
2018-02-17T16:37:41.120Z,2.60
2018-02-17T16:40:14.713Z,2.60
2018-02-17T16:42:48.404Z,2.50
2018-02-17T16:45:21.954Z,2.50
2018-02-17T16:47:55.502Z,2.40
2018-02-17T16:50:29.091Z,2.40
2018-02-17T16:53:02.619Z,2.40
2018-02-17T16:55:36.200Z,2.20
2018-02-17T16:58:09.881Z,2.20
2018-02-17T17:00:43.525Z,2.20
2018-02-17T17:03:17.089Z,2.20
2018-02-17T17:05:50.703Z,2.20
2018-02-17T17:08:25.042Z,2.20
2018-02-17T17:10:58.630Z,2.20
2018-02-17T17:13:32.234Z,2.20
2018-02-17T17:16:06.683Z,2.20
2018-02-17T17:18:40.233Z,2.20
2018-02-17T17:21:13.868Z,2.10
2018-02-17T17:23:47.443Z,2.10
2018-02-17T17:26:21.768Z,2.10
2018-02-17T17:28:55.311Z,2.10
2018-02-17T17:31:29.700Z,2.10
2018-02-17T17:34:03.441Z,2.10
2018-02-17T17:36:36.974Z,2.10
2018-02-17T17:39:11.295Z,2.10
2018-02-17T17:41:44.883Z,2.10
2018-02-17T17:44:18.455Z,2.10
2018-02-17T17:46:52.014Z,2.10
2018-02-17T17:49:25.719Z,2.10
2018-02-17T17:51:59.323Z,2.00
2018-02-17T17:54:32.834Z,2.00
2018-02-17T17:57:06.505Z,2.10
2018-02-17T17:59:40.143Z,2.10
2018-02-17T18:02:13.686Z,1.70
2018-02-17T18:04:47.466Z,1.90
2018-02-17T18:07:21.035Z,1.90
2018-02-17T18:09:55.343Z,2.00
2018-02-17T18:12:29.074Z,2.00
2018-02-17T18:15:02.716Z,2.00
2018-02-17T18:17:36.242Z,2.10
2018-02-17T18:20:09.875Z,2.00
2018-02-17T18:22:43.373Z,2.00
2018-02-17T18:25:16.963Z,2.00
2018-02-17T18:27:51.487Z,2.00
2018-02-17T18:30:25.222Z,2.00
2018-02-17T18:32:58.792Z,2.00
2018-02-17T18:35:32.472Z,2.00
2018-02-17T18:38:05.999Z,2.00
2018-02-17T18:40:39.773Z,1.90
2018-02-17T18:43:13.297Z,1.90
2018-02-17T18:45:46.903Z,2.00
2018-02-17T18:48:20.625Z,2.00
2018-02-17T18:50:54.462Z,1.90
2018-02-17T18:53:28.214Z,1.80
2018-02-17T18:56:01.936Z,1.80
2018-02-17T18:58:35.789Z,1.90
2018-02-17T19:01:09.421Z,1.80
2018-02-17T19:03:43.767Z,1.70
2018-02-17T19:06:18.183Z,1.70
2018-02-17T19:08:51.857Z,1.70
2018-02-17T19:11:25.523Z,1.60
2018-02-17T19:13:59.075Z,1.50
2018-02-17T19:16:33.383Z,1.60
2018-02-17T19:19:07.080Z,1.50
2018-02-17T19:21:40.884Z,1.60
2018-02-17T19:24:14.474Z,1.60
2018-02-17T19:26:48.016Z,1.80
2018-02-17T19:29:21.609Z,1.80
2018-02-17T19:31:55.298Z,1.80
2018-02-17T19:34:28.811Z,1.90
2018-02-17T19:37:03.180Z,1.90
2018-02-17T19:39:37.697Z,1.90
2018-02-17T19:42:11.360Z,1.80
2018-02-17T19:44:45.046Z,1.80
2018-02-17T19:47:18.712Z,1.70
2018-02-17T19:49:52.651Z,1.80
2018-02-17T19:52:27.043Z,1.80
2018-02-17T19:55:00.648Z,1.80
2018-02-17T19:57:34.275Z,1.80
2018-02-17T20:00:07.855Z,1.80
2018-02-17T20:02:41.379Z,1.80
2018-02-17T20:05:14.962Z,1.70
2018-02-17T20:07:48.543Z,1.60
2018-02-17T20:10:22.147Z,1.50
2018-02-17T20:12:55.678Z,1.40
2018-02-17T20:15:29.273Z,1.40
2018-02-17T20:18:02.899Z,1.40
2018-02-17T20:20:36.462Z,1.40
2018-02-17T20:23:10.032Z,1.40
2018-02-17T20:25:43.564Z,1.40
2018-02-17T20:28:17.050Z,1.40
2018-02-17T20:30:50.613Z,1.50
2018-02-17T20:33:24.937Z,1.50
2018-02-17T20:35:58.532Z,1.50
2018-02-17T20:38:32.148Z,1.50
2018-02-17T20:41:06.473Z,1.50
2018-02-17T20:43:40.002Z,1.50
2018-02-17T20:46:13.715Z,1.50
2018-02-17T20:48:47.280Z,1.40
2018-02-17T20:51:20.879Z,1.40
2018-02-17T20:53:54.476Z,1.40
2018-02-17T20:56:27.991Z,1.40
2018-02-17T20:59:01.568Z,1.50
2018-02-17T21:01:35.132Z,1.50
2018-02-17T21:04:08.695Z,1.50
2018-02-17T21:06:42.255Z,1.30
2018-02-17T21:09:15.782Z,1.20
2018-02-17T21:11:49.278Z,1.30
2018-02-17T21:14:22.890Z,1.30
2018-02-17T21:16:57.193Z,1.40
2018-02-17T21:19:30.803Z,1.40
2018-02-17T21:22:04.427Z,1.20
2018-02-17T21:24:38.106Z,1.20
2018-02-17T21:27:11.630Z,1.10
2018-02-17T21:29:45.216Z,1.10
2018-02-17T21:32:19.519Z,1.20
2018-02-17T21:34:53.863Z,1.20
2018-02-17T21:37:27.636Z,1.20
2018-02-17T21:40:01.333Z,1.20
2018-02-17T21:42:34.914Z,1.10
2018-02-17T21:45:08.429Z,1.00
2018-02-17T21:47:41.984Z,0.90
2018-02-17T21:50:16.258Z,0.80
2018-02-17T21:52:49.755Z,0.80
2018-02-17T21:55:23.358Z,0.80
2018-02-17T21:57:57.050Z,0.80
2018-02-17T22:00:30.608Z,0.80
2018-02-17T22:03:04.195Z,0.70
2018-02-17T22:05:38.485Z,0.70
2018-02-17T22:08:12.203Z,0.70
2018-02-17T22:10:45.784Z,0.70
2018-02-17T22:13:19.374Z,0.70
2018-02-17T22:15:53.001Z,0.70
2018-02-17T22:18:26.582Z,0.70
2018-02-17T22:21:00.269Z,0.70
2018-02-17T22:23:34.580Z,0.80
2018-02-17T22:26:08.951Z,0.80
2018-02-17T22:28:43.329Z,0.80
2018-02-17T22:31:17.074Z,0.80
2018-02-17T22:33:50.649Z,0.80
2018-02-17T22:36:24.187Z,0.70
2018-02-17T22:38:57.886Z,0.80
2018-02-17T22:41:31.447Z,0.70
2018-02-17T22:44:05.057Z,0.60
2018-02-17T22:46:38.579Z,0.70
2018-02-17T22:49:12.155Z,0.70
2018-02-17T22:51:45.837Z,0.70
2018-02-17T22:54:19.407Z,0.60
2018-02-17T22:56:53.056Z,0.50
2018-02-17T22:59:26.566Z,0.50
2018-02-17T23:02:00.050Z,0.50
2018-02-17T23:04:33.572Z,0.50
2018-02-17T23:07:07.151Z,0.50
2018-02-17T23:09:40.792Z,0.50
2018-02-17T23:12:14.479Z,0.50
2018-02-17T23:14:48.067Z,0.40
2018-02-17T23:17:21.618Z,0.40
2018-02-17T23:19:55.968Z,0.50
2018-02-17T23:22:29.733Z,0.50
2018-02-17T23:25:03.249Z,0.40
2018-02-17T23:27:36.748Z,0.50
2018-02-17T23:30:10.232Z,0.50
2018-02-17T23:32:43.773Z,0.40
2018-02-17T23:35:17.325Z,0.30
2018-02-17T23:37:50.824Z,0.10
2018-02-17T23:40:24.330Z,0.00
2018-02-17T23:42:58.152Z,0.20
2018-02-17T23:45:31.776Z,0.10
2018-02-17T23:48:05.403Z,0.20
2018-02-17T23:50:38.980Z,0.30
2018-02-17T23:53:12.606Z,0.40
2018-02-17T23:55:46.411Z,0.40
2018-02-17T23:58:20.093Z,0.50
